Atlantic Tramp — V7SM5 — position and weather

sailwx.info

Track history (hours):
 
Tides and Currents Weather Stations Pressure Air Temp Water Temp Dewpoint Dewpoint Depression Visibility Wind Speed Wind Dir Waves Ship Positions

Atlantic Tramp

Last reported at 2014-Jun-20 14:17 UTC. Time now 2014-Jul-28 04:13 UTC.
Position N 31°23' E 032°20'.
Warning: this ship's position is 37 days out of date.

Length 180 m; draft 10.6 m.

Type: Cargo ship. MMSI: 538003682.

Date/timePositionNaut miles runAvg speedWind from/ knotsBaromVisibWave heightAir tempDewpointWater temp
2014-Jun-20 14:17N 31°23' E 032°20'0 0.0
2014-Jun-20 12:14N 31°23' E 032°20'0 0.0
2014-Jun-20 11:32N 31°23' E 032°20'0 0.0
2014-Jun-20 10:26N 31°23' E 032°20'0 0.0
2014-Jun-20 07:11N 31°23' E 032°20'0 0.0
2014-Jun-20 06:08N 31°23' E 032°20'0 0.5
2014-Jun-20 05:27N 31°23' E 032°20'8 7.3
2014-Jun-20 04:23N 31°29' E 032°15'2412.8
2014-Jun-20 02:32N 31°46' E 031°55'56912.9
2014-Jun-18 06:31N 34°41' E 021°08'33412.8
2014-Jun-17 04:27N 36°13' E 014°33'1213.2
2014-Jun-17 03:32N 36°18' E 014°19'1313.0
2014-Jun-17 02:33N 36°22' E 014°05'1312.5
2014-Jun-17 01:33N 36°27' E 013°50'2713.4
2014-Jun-16 23:33N 36°36' E 013°19'1714.0
2014-Jun-16 22:22N 36°42' E 012°60'1113.5
2014-Jun-16 21:32N 36°46' E 012°46'5613.8
2014-Jun-16 17:30N 37°08' E 011°42'1313.3
2014-Jun-16 16:33N 37°14' E 011°29'1613.3
2014-Jun-16 15:20N 37°22' E 011°11'2613.3
2014-Jun-16 13:23N 37°29' E 010°40'39512.7
2014-Jun-15 06:19N 37°02' E 002°25'2312.9
2014-Jun-15 04:33N 36°58' E 001°57'2612.6
2014-Jun-15 02:30N 36°53' E 001°25'1312.5
2014-Jun-15 01:26N 36°51' E 001°09'1112.8
2014-Jun-15 00:33N 36°49' E 000°55'10913.5
2014-Jun-14 16:30N 36°30' W 001°19'37912.5
2014-Jun-13 10:15N 36°32' W 009°10'1012.5
2014-Jun-13 09:28N 36°36' W 009°21'1213.0
2014-Jun-13 08:33N 36°45' W 009°31'1312.7
2014-Jun-13 07:33N 36°57' W 009°35'1313.1
2014-Jun-13 06:33N 37°10' W 009°39'1312.8
2014-Jun-13 05:32N 37°22' W 009°43'1313.0
2014-Jun-13 04:33N 37°35' W 009°46'1313.3
2014-Jun-13 03:33N 37°48' W 009°51'1413.5
2014-Jun-13 02:32N 38°01' W 009°54'1413.5
2014-Jun-13 01:31N 38°14' W 009°58'1613.6
2014-Jun-13 00:23N 38°29' W 010°03'1113.8
2014-Jun-12 23:33N 38°41' W 010°06'1312.9
2014-Jun-12 22:33N 38°54' W 010°07'  
Track history (hours):
 
Tides and Currents Weather Stations Pressure Air Temp Water Temp Dewpoint Dewpoint Depression Visibility Wind Speed Wind Dir Waves Ship Positions

Atlantic Tramp

Last reported at 2014-Jun-20 14:17 UTC. Time now 2014-Jul-28 04:13 UTC.
Position N 31°23' E 032°20'.
Warning: this ship's position is 37 days out of date.

Length 180 m; draft 10.6 m.

Type: Cargo ship. MMSI: 538003682.

Date/timePositionNaut miles runAvg speedWind from/ knotsBaromVisibWave heightAir tempDewpointWater temp
2014-Jun-20 14:17N 31°23' E 032°20'0 0.0
2014-Jun-20 12:14N 31°23' E 032°20'0 0.0
2014-Jun-20 11:32N 31°23' E 032°20'0 0.0
2014-Jun-20 10:26N 31°23' E 032°20'0 0.0
2014-Jun-20 07:11N 31°23' E 032°20'0 0.0
2014-Jun-20 06:08N 31°23' E 032°20'0 0.5
2014-Jun-20 05:27N 31°23' E 032°20'8 7.3
2014-Jun-20 04:23N 31°29' E 032°15'2412.8
2014-Jun-20 02:32N 31°46' E 031°55'56912.9
2014-Jun-18 06:31N 34°41' E 021°08'33412.8
2014-Jun-17 04:27N 36°13' E 014°33'1213.2
2014-Jun-17 03:32N 36°18' E 014°19'1313.0
2014-Jun-17 02:33N 36°22' E 014°05'1312.5
2014-Jun-17 01:33N 36°27' E 013°50'2713.4
2014-Jun-16 23:33N 36°36' E 013°19'1714.0
2014-Jun-16 22:22N 36°42' E 012°60'1113.5
2014-Jun-16 21:32N 36°46' E 012°46'5613.8
2014-Jun-16 17:30N 37°08' E 011°42'1313.3
2014-Jun-16 16:33N 37°14' E 011°29'1613.3
2014-Jun-16 15:20N 37°22' E 011°11'2613.3
2014-Jun-16 13:23N 37°29' E 010°40'39512.7
2014-Jun-15 06:19N 37°02' E 002°25'2312.9
2014-Jun-15 04:33N 36°58' E 001°57'2612.6
2014-Jun-15 02:30N 36°53' E 001°25'1312.5
2014-Jun-15 01:26N 36°51' E 001°09'1112.8
2014-Jun-15 00:33N 36°49' E 000°55'10913.5
2014-Jun-14 16:30N 36°30' W 001°19'37912.5
2014-Jun-13 10:15N 36°32' W 009°10'1012.5
2014-Jun-13 09:28N 36°36' W 009°21'1213.0
2014-Jun-13 08:33N 36°45' W 009°31'1312.7
2014-Jun-13 07:33N 36°57' W 009°35'1313.1
2014-Jun-13 06:33N 37°10' W 009°39'1312.8
2014-Jun-13 05:32N 37°22' W 009°43'1313.0
2014-Jun-13 04:33N 37°35' W 009°46'1313.3
2014-Jun-13 03:33N 37°48' W 009°51'1413.5
2014-Jun-13 02:32N 38°01' W 009°54'1413.5
2014-Jun-13 01:31N 38°14' W 009°58'1613.6
2014-Jun-13 00:23N 38°29' W 010°03'1113.8
2014-Jun-12 23:33N 38°41' W 010°06'1312.9
2014-Jun-12 22:33N 38°54' W 010°07'  

Dump ship's entire track history